aviador You're here:

LFMT Decoded Metar

MONTPELLIER in FRANCE
Report Time2017-11-24 18:30:00
UTC Time2017-11-24 18:38:39
Flight Rules mvfr MVFR
Wind010° at 07 kt
W.Decomp.*RWY 30: 2.4 kt HW 6.6 kt RCW
W.Rank010° ranks 1
Current wind is below 010° avg. (7.3)
Visibility9999 m
Phenomena:Mist
Clouds:Overcast 013 Hf
Expected CloudBase > 800 ft AGL from Temp-Dew spread
Ceiling1,300 ft
Temp13°C (ISA -2)
Dew Point11°C (88% RH)
AAT10.8°C
QNH1018 hPa
Density Alt-207 ft
Elevation20 ft
Report Wrong Elevation
Raw Report
METAR LFMT 241830Z AUTO 01007KT 9999 OVC013 13/11 Q1018 TEMPO 3000
BR BKN003=

Extra information for LFMT:More info

Metar Taf Metar & Taf Last 4 Metars F.Rules Stats Wind Profile Meteogram Temp Stats Airport Information Weather charts Add Link Nearby VenuesMetar ALERT Operation Metar Decoded Social comments